ADDS TAF Data INFO
IDs: Format: Raw Decoded Include METARs

Data at: 1816 UTC 24 Jun 2018

KFST 241753Z AUTO 23007KT 10SM CLR 38/08 A2984 RMK AO2 SLP043 T03780083 10383 20250 58002

KFST 241725Z 2418/2518 23011KT P6SM SKC
  FM242300 17016G24KT P6SM SCT110
  FM251500 21014G22KT P6SM SKC